Mumbai Express — V2AH1 — position and weather

sailwx.info

Track history (hours):
 
Tides and Currents Weather Stations Pressure Air Temp Water Temp Dewpoint Dewpoint Depression Visibility Wind Speed Wind Dir Waves Ship Positions

Mumbai Express

Last reported at 2014-Oct-29 19:24 UTC. Time now 2014-Nov-01 11:43 UTC.
Position N 38°35' W 074°17'.

Length 260.7 m; beam 32.3 m; draft 12.5 m.

Type: Ship. MMSI: 304010914.

Date/timePositionNaut miles runAvg speedWind from/ knotsBaromVisibWave heightAir tempDewpointWater temp
2014-Oct-29 19:24N 38°35' W 074°17'3712.3
2014-Oct-29 16:23N 39°09' W 073°59'1312.3
2014-Oct-29 15:22N 39°21' W 073°57'1112.1
2014-Oct-29 14:29N 39°32' W 073°55'1112.2
2014-Oct-29 13:33N 39°43' W 073°52'1312.2
2014-Oct-29 12:30N 39°56' W 073°51'1512.3
2014-Oct-29 11:14N 40°11' W 073°50'912.4
2014-Oct-29 10:30N 40°20' W 073°49'1010.6
2014-Oct-29 09:33N 40°29' W 073°55'1312.8
2014-Oct-29 08:33N 40°39' W 074°06'3 3.1
2014-Oct-29 07:33N 40°41' W 074°09'0 0.0
2014-Oct-29 06:33N 40°41' W 074°09'0 0.0
2014-Oct-29 05:32N 40°41' W 074°09'0 0.0
2014-Oct-29 04:32N 40°41' W 074°09'0 0.0
2014-Oct-29 03:31N 40°41' W 074°09'0 0.0
2014-Oct-29 02:31N 40°41' W 074°09'0 0.0
2014-Oct-29 01:33N 40°41' W 074°09'0 0.0
2014-Oct-29 00:33N 40°41' W 074°09'0 0.0
2014-Oct-28 23:32N 40°41' W 074°09'0 0.0
2014-Oct-28 22:32N 40°41' W 074°09'0 0.0
2014-Oct-28 21:32N 40°41' W 074°09'0 0.0
2014-Oct-28 20:31N 40°41' W 074°09'0 0.0
2014-Oct-28 19:28N 40°41' W 074°09'0 0.0
2014-Oct-28 18:33N 40°41' W 074°09'0 0.0
2014-Oct-28 17:33N 40°41' W 074°09'0 0.0
2014-Oct-28 16:29N 40°41' W 074°09'0 0.0
2014-Oct-28 15:32N 40°41' W 074°09'0 0.0
2014-Oct-28 14:29N 40°41' W 074°09'0 0.0
2014-Oct-28 13:31N 40°41' W 074°09'0 0.0
2014-Oct-28 12:31N 40°41' W 074°09'0 0.0
2014-Oct-28 11:30N 40°41' W 074°09'0 0.0
2014-Oct-28 10:33N 40°41' W 074°09'2 1.6
2014-Oct-28 09:34N 40°40' W 074°08'3 3.3
2014-Oct-28 08:34N 40°39' W 074°04'1111.1
2014-Oct-28 07:34N 40°30' W 073°56'1010.2
2014-Oct-28 06:33N 40°27' W 073°43'1312.9
2014-Oct-28 05:33N 40°28' W 073°26'1515.4
2014-Oct-28 04:33N 40°30' W 073°06'1615.8
2014-Oct-28 03:33N 40°30' W 072°45'1615.9
2014-Oct-28 02:33N 40°31' W 072°24'1615.9
2014-Oct-28 01:33N 40°31' W 072°03'1616.0
2014-Oct-28 00:33N 40°32' W 071°42'1616.5
2014-Oct-27 23:33N 40°32' W 071°21'1717.3
2014-Oct-27 22:33N 40°33' W 070°58'1717.2
2014-Oct-27 21:33N 40°34' W 070°35'1817.7
2014-Oct-27 20:31N 40°34' W 070°11'  
2014-Oct-23 15:17N 40°01' W 031°19'1416.6
2014-Oct-23 14:26N 40°01' W 031°01'6516.5
2014-Oct-23 10:29N 39°56' W 029°36'1616.8
2014-Oct-23 09:33N 39°52' W 029°16'1716.6
2014-Oct-23 08:33N 39°48' W 028°55'1616.1
2014-Oct-23 07:33N 39°45' W 028°35'1616.1
2014-Oct-23 06:33N 39°41' W 028°14'1616.3
2014-Oct-23 05:34N 39°38' W 027°54'1716.6
2014-Oct-23 04:33N 39°34' W 027°33'1716.4
2014-Oct-23 03:32N 39°30' W 027°12'62216.4
2014-Oct-21 13:33N 37°10' W 014°19'1615.8
2014-Oct-21 12:33N 37°06' W 014°00'1615.8
2014-Oct-21 11:33N 37°03' W 013°41'1615.6
2014-Oct-21 10:32N 36°59' W 013°22'2215.6
2014-Oct-21 09:06N 36°54' W 012°54'2516.0
2014-Oct-21 07:33N 36°48' W 012°24'1615.6
2014-Oct-21 06:33N 36°45' W 012°05'1615.7
2014-Oct-21 05:32N 36°41' W 011°46'1515.4
2014-Oct-21 04:33N 36°38' W 011°27'1615.7
2014-Oct-21 03:32N 36°34' W 011°08'1615.9
2014-Oct-21 02:33N 36°31' W 010°49'1616.0
2014-Oct-21 01:33N 36°27' W 010°30'1616.1
2014-Oct-21 00:33N 36°24' W 010°10'1616.2
2014-Oct-20 23:33N 36°20' W 009°51'1816.3
2014-Oct-20 22:28N 36°16' W 009°29'1516.2
2014-Oct-20 21:33N 36°14' W 009°11'2216.1
2014-Oct-20 20:13N 36°11' W 008°44'2716.3
2014-Oct-20 18:33N 36°09' W 008°11'1616.2
2014-Oct-20 17:33N 36°06' W 007°51'1616.1
2014-Oct-20 16:33N 36°04' W 007°31'1816.0
2014-Oct-20 15:27N 36°03' W 007°10'1415.9
2014-Oct-20 14:33N 36°01' W 006°52'1615.7
2014-Oct-20 13:33N 35°59' W 006°33'5315.9
2014-Oct-20 10:13N 36°01' W 005°28'1015.1
2014-Oct-20 09:33N 36°04' W 005°16'17015.3
2014-Oct-19 22:27N 36°41' W 001°49'1716.4
2014-Oct-19 21:27N 36°53' W 001°34'1516.5
2014-Oct-19 20:33N 37°02' W 001°20'1716.5
2014-Oct-19 19:33N 37°13' W 001°05'  
Track history (hours):
 
Tides and Currents Weather Stations Pressure Air Temp Water Temp Dewpoint Dewpoint Depression Visibility Wind Speed Wind Dir Waves Ship Positions

Mumbai Express

Last reported at 2014-Oct-29 19:24 UTC. Time now 2014-Nov-01 11:43 UTC.
Position N 38°35' W 074°17'.

Length 260.7 m; beam 32.3 m; draft 12.5 m.

Type: Ship. MMSI: 304010914.

Date/timePositionNaut miles runAvg speedWind from/ knotsBaromVisibWave heightAir tempDewpointWater temp
2014-Oct-29 19:24N 38°35' W 074°17'3712.3
2014-Oct-29 16:23N 39°09' W 073°59'1312.3
2014-Oct-29 15:22N 39°21' W 073°57'1112.1
2014-Oct-29 14:29N 39°32' W 073°55'1112.2
2014-Oct-29 13:33N 39°43' W 073°52'1312.2
2014-Oct-29 12:30N 39°56' W 073°51'1512.3
2014-Oct-29 11:14N 40°11' W 073°50'912.4
2014-Oct-29 10:30N 40°20' W 073°49'1010.6
2014-Oct-29 09:33N 40°29' W 073°55'1312.8
2014-Oct-29 08:33N 40°39' W 074°06'3 3.1
2014-Oct-29 07:33N 40°41' W 074°09'0 0.0
2014-Oct-29 06:33N 40°41' W 074°09'0 0.0
2014-Oct-29 05:32N 40°41' W 074°09'0 0.0
2014-Oct-29 04:32N 40°41' W 074°09'0 0.0
2014-Oct-29 03:31N 40°41' W 074°09'0 0.0
2014-Oct-29 02:31N 40°41' W 074°09'0 0.0
2014-Oct-29 01:33N 40°41' W 074°09'0 0.0
2014-Oct-29 00:33N 40°41' W 074°09'0 0.0
2014-Oct-28 23:32N 40°41' W 074°09'0 0.0
2014-Oct-28 22:32N 40°41' W 074°09'0 0.0
2014-Oct-28 21:32N 40°41' W 074°09'0 0.0
2014-Oct-28 20:31N 40°41' W 074°09'0 0.0
2014-Oct-28 19:28N 40°41' W 074°09'0 0.0
2014-Oct-28 18:33N 40°41' W 074°09'0 0.0
2014-Oct-28 17:33N 40°41' W 074°09'0 0.0
2014-Oct-28 16:29N 40°41' W 074°09'0 0.0
2014-Oct-28 15:32N 40°41' W 074°09'0 0.0
2014-Oct-28 14:29N 40°41' W 074°09'0 0.0
2014-Oct-28 13:31N 40°41' W 074°09'0 0.0
2014-Oct-28 12:31N 40°41' W 074°09'0 0.0
2014-Oct-28 11:30N 40°41' W 074°09'0 0.0
2014-Oct-28 10:33N 40°41' W 074°09'2 1.6
2014-Oct-28 09:34N 40°40' W 074°08'3 3.3
2014-Oct-28 08:34N 40°39' W 074°04'1111.1
2014-Oct-28 07:34N 40°30' W 073°56'1010.2
2014-Oct-28 06:33N 40°27' W 073°43'1312.9
2014-Oct-28 05:33N 40°28' W 073°26'1515.4
2014-Oct-28 04:33N 40°30' W 073°06'1615.8
2014-Oct-28 03:33N 40°30' W 072°45'1615.9
2014-Oct-28 02:33N 40°31' W 072°24'1615.9
2014-Oct-28 01:33N 40°31' W 072°03'1616.0
2014-Oct-28 00:33N 40°32' W 071°42'1616.5
2014-Oct-27 23:33N 40°32' W 071°21'1717.3
2014-Oct-27 22:33N 40°33' W 070°58'1717.2
2014-Oct-27 21:33N 40°34' W 070°35'1817.7
2014-Oct-27 20:31N 40°34' W 070°11'  
2014-Oct-23 15:17N 40°01' W 031°19'1416.6
2014-Oct-23 14:26N 40°01' W 031°01'6516.5
2014-Oct-23 10:29N 39°56' W 029°36'1616.8
2014-Oct-23 09:33N 39°52' W 029°16'1716.6
2014-Oct-23 08:33N 39°48' W 028°55'1616.1
2014-Oct-23 07:33N 39°45' W 028°35'1616.1
2014-Oct-23 06:33N 39°41' W 028°14'1616.3
2014-Oct-23 05:34N 39°38' W 027°54'1716.6
2014-Oct-23 04:33N 39°34' W 027°33'1716.4
2014-Oct-23 03:32N 39°30' W 027°12'62216.4
2014-Oct-21 13:33N 37°10' W 014°19'1615.8
2014-Oct-21 12:33N 37°06' W 014°00'1615.8
2014-Oct-21 11:33N 37°03' W 013°41'1615.6
2014-Oct-21 10:32N 36°59' W 013°22'2215.6
2014-Oct-21 09:06N 36°54' W 012°54'2516.0
2014-Oct-21 07:33N 36°48' W 012°24'1615.6
2014-Oct-21 06:33N 36°45' W 012°05'1615.7
2014-Oct-21 05:32N 36°41' W 011°46'1515.4
2014-Oct-21 04:33N 36°38' W 011°27'1615.7
2014-Oct-21 03:32N 36°34' W 011°08'1615.9
2014-Oct-21 02:33N 36°31' W 010°49'1616.0
2014-Oct-21 01:33N 36°27' W 010°30'1616.1
2014-Oct-21 00:33N 36°24' W 010°10'1616.2
2014-Oct-20 23:33N 36°20' W 009°51'1816.3
2014-Oct-20 22:28N 36°16' W 009°29'1516.2
2014-Oct-20 21:33N 36°14' W 009°11'2216.1
2014-Oct-20 20:13N 36°11' W 008°44'2716.3
2014-Oct-20 18:33N 36°09' W 008°11'1616.2
2014-Oct-20 17:33N 36°06' W 007°51'1616.1
2014-Oct-20 16:33N 36°04' W 007°31'1816.0
2014-Oct-20 15:27N 36°03' W 007°10'1415.9
2014-Oct-20 14:33N 36°01' W 006°52'1615.7
2014-Oct-20 13:33N 35°59' W 006°33'5315.9
2014-Oct-20 10:13N 36°01' W 005°28'1015.1
2014-Oct-20 09:33N 36°04' W 005°16'17015.3
2014-Oct-19 22:27N 36°41' W 001°49'1716.4
2014-Oct-19 21:27N 36°53' W 001°34'1516.5
2014-Oct-19 20:33N 37°02' W 001°20'1716.5
2014-Oct-19 19:33N 37°13' W 001°05'  

Dump ship's entire track history